Hampden Township, Pennsylvania
Current Conditions -  °F | °C
As of 5:56 PM on Monday 24 Nov 2014 (Local Time) from KCXY Reporting Station
Clear Clear  
Wind Chill: 67°   Ceiling: Unl
Heat Index: 67°   Visibility: 10mi
Dew Point: 50°   Wind: 14mph
Humidity: 54%   Direction: 180°S
Pressure: 29.61"   Gusts: 25mph
Location:  40.2485°N, 77.0142°W
Report Text: KCXY 242256Z 18012G22KT 10SM CLR 19/10 A2961 RMK AO2 SLP026 T01940100
Loading
Personal Weather Stations






























Interactive Weather Map New forecast layout! Learn more

10-Day Weather Forecast

Advertisements
Track Severe Weather on mobile